createdAt,value
2023-04-23T00:01:35.414Z,68685.00
2023-04-23T00:04:08.853Z,68682.16
2023-04-23T00:06:43.734Z,68681.19
2023-04-23T00:09:17.022Z,68686.88
2023-04-23T00:11:49.467Z,68673.81
2023-04-23T00:14:21.778Z,68678.75
2023-04-23T00:16:49.066Z,68683.84
2023-04-23T00:19:25.171Z,68688.97
2023-04-23T00:21:54.653Z,68681.38
2023-04-23T00:24:22.282Z,68687.81
2023-04-23T00:26:49.393Z,68694.47
2023-04-23T00:29:16.562Z,68699.78
2023-04-23T00:31:43.813Z,68691.44
2023-04-23T00:34:11.180Z,68695.03
2023-04-23T00:36:41.275Z,68686.88
2023-04-23T00:39:11.721Z,68684.22
2023-04-23T00:41:40.089Z,68685.34
2023-04-23T00:44:08.822Z,68677.41
2023-04-23T00:46:37.284Z,68652.00
2023-04-23T00:49:04.421Z,68641.97
2023-04-23T00:51:34.606Z,68652.41
2023-04-23T00:54:01.809Z,68644.63
2023-04-23T00:56:29.067Z,68630.22
2023-04-23T00:58:56.523Z,68637.81
2023-04-23T01:01:24.483Z,68628.34
2023-04-23T01:03:53.337Z,68620.97
2023-04-23T01:06:21.526Z,68610.34
2023-04-23T01:08:48.854Z,68613.94
2023-04-23T01:11:16.724Z,68621.91
2023-04-23T01:13:43.998Z,68620.94
2023-04-23T01:16:14.749Z,68639.13
2023-04-23T01:18:41.962Z,68648.78
2023-04-23T01:21:12.009Z,68644.44
2023-04-23T01:23:39.759Z,68641.59
2023-04-23T01:26:07.349Z,68634.97
2023-04-23T01:28:35.162Z,68640.66
2023-04-23T01:31:02.659Z,68641.22
2023-04-23T01:33:32.083Z,68639.53
2023-04-23T01:36:03.037Z,68643.09
2023-04-23T01:38:32.068Z,68659.22
2023-04-23T01:40:59.236Z,68656.19
2023-04-23T01:43:45.457Z,68667.53
2023-04-23T01:46:16.056Z,68695.78
2023-04-23T01:48:46.313Z,68696.91
2023-04-23T01:51:13.543Z,68684.81
2023-04-23T01:53:40.803Z,68679.31
2023-04-23T01:56:11.716Z,68678.16
2023-04-23T01:58:41.280Z,68671.19
2023-04-23T02:01:08.493Z,68656.91
2023-04-23T02:03:36.194Z,68659.00
2023-04-23T02:06:05.050Z,68651.22
2023-04-23T02:08:35.665Z,68658.09
2023-04-23T02:11:10.932Z,68655.59
2023-04-23T02:13:38.161Z,68646.53
2023-04-23T02:16:05.934Z,68640.84
2023-04-23T02:18:33.129Z,68639.53
2023-04-23T02:21:00.430Z,68642.19
2023-04-23T02:23:27.541Z,68628.72
2023-04-23T02:25:54.937Z,68626.81
2023-04-23T02:28:22.092Z,68640.66
2023-04-23T02:30:49.277Z,68651.25
2023-04-23T02:33:16.848Z,68648.59
2023-04-23T02:35:43.938Z,68642.34
2023-04-23T02:38:15.101Z,68641.97
2023-04-23T02:40:42.245Z,68634.41
2023-04-23T02:43:09.387Z,68634.22
2023-04-23T02:45:40.264Z,68617.91
2023-04-23T02:48:25.492Z,68609.78
2023-04-23T02:51:05.218Z,68594.84
2023-04-23T02:53:32.560Z,68585.34
2023-04-23T02:55:59.835Z,68584.97
2023-04-23T02:58:40.341Z,68580.44
2023-04-23T03:01:08.879Z,68578.34
2023-04-23T03:03:40.939Z,68578.75
2023-04-23T03:06:11.227Z,68574.38
2023-04-23T03:08:40.389Z,68578.56
2023-04-23T03:11:07.621Z,68563.03
2023-04-23T03:13:34.850Z,68573.44
2023-04-23T03:16:02.118Z,68573.25
2023-04-23T03:18:29.264Z,68573.06
2023-04-23T03:20:57.437Z,68565.31
2023-04-23T03:23:24.864Z,68560.56
2023-04-23T03:25:51.974Z,68570.63
2023-04-23T03:28:19.087Z,68580.81
2023-04-23T03:30:46.207Z,68573.81
2023-04-23T03:33:13.352Z,68572.66
2023-04-23T03:35:40.947Z,68591.59
2023-04-23T03:38:13.098Z,68585.94
2023-04-23T03:40:41.687Z,68591.25
2023-04-23T03:43:10.275Z,68598.03
2023-04-23T03:45:55.690Z,68595.78
2023-04-23T03:48:23.388Z,68613.22
2023-04-23T03:50:50.659Z,68615.25
2023-04-23T03:53:36.500Z,68641.22
2023-04-23T03:56:21.887Z,68638.00
2023-04-23T03:59:07.530Z,68640.09
2023-04-23T04:01:36.349Z,68651.25
2023-04-23T04:04:03.811Z,68649.53
2023-04-23T04:06:33.316Z,68631.75
2023-04-23T04:09:00.614Z,68620.22
2023-04-23T04:11:28.652Z,68586.88
2023-04-23T04:13:55.761Z,68578.75
2023-04-23T04:16:23.178Z,68560.94
2023-04-23T04:18:50.425Z,68557.16
2023-04-23T04:21:19.097Z,68557.00
2023-04-23T04:23:46.304Z,68541.09
2023-04-23T04:26:15.210Z,68540.13
2023-04-23T04:31:29.859Z,68522.16
2023-04-23T04:33:59.563Z,68531.81
2023-04-23T04:36:38.596Z,68516.84
2023-04-23T04:39:09.181Z,68519.72
2023-04-23T04:41:39.957Z,68521.41
2023-04-23T04:44:12.608Z,68539.19
2023-04-23T04:46:44.575Z,68530.09
2023-04-23T04:49:22.547Z,68540.31
2023-04-23T04:51:55.671Z,68560.56
2023-04-23T04:54:29.995Z,68540.50
2023-04-23T04:57:09.446Z,68556.78
2023-04-23T04:59:48.962Z,68581.41
2023-04-23T05:02:16.717Z,68579.69
2023-04-23T05:04:44.195Z,68584.41
2023-04-23T05:07:15.580Z,68593.50
2023-04-23T05:09:48.519Z,68619.25
2023-04-23T05:12:22.738Z,68638.56
2023-04-23T05:14:53.086Z,68651.44
2023-04-23T05:17:22.985Z,68647.47
2023-04-23T05:20:01.986Z,68655.44
2023-04-23T05:22:35.268Z,68679.13
2023-04-23T05:25:07.802Z,68673.81
2023-04-23T05:27:37.322Z,68659.56
2023-04-23T05:30:14.519Z,68641.22
2023-04-23T05:32:43.917Z,68638.94
2023-04-23T05:35:11.060Z,68653.91
2023-04-23T05:37:38.265Z,68672.09
2023-04-23T05:40:09.368Z,68670.78
2023-04-23T05:42:42.296Z,68656.56
2023-04-23T05:45:12.520Z,68644.44
2023-04-23T05:47:43.408Z,68630.03
2023-04-23T05:50:11.792Z,68641.22
2023-04-23T05:52:40.530Z,68651.06
2023-04-23T05:55:13.961Z,68690.84
2023-04-23T05:57:41.426Z,68747.31
2023-04-23T06:00:11.848Z,68814.78
2023-04-23T06:05:28.881Z,68875.47
2023-04-23T06:07:56.166Z,68921.75
2023-04-23T06:10:23.398Z,69000.75
2023-04-23T06:12:50.509Z,69043.06
2023-04-23T06:15:17.634Z,69087.69
2023-04-23T06:17:44.772Z,69154.19
2023-04-23T06:20:12.146Z,69205.69
2023-04-23T06:22:40.679Z,69246.56
2023-04-23T06:25:21.878Z,69229.47
2023-04-23T06:27:51.713Z,69149.78
2023-04-23T06:30:23.372Z,69072.69
2023-04-23T06:32:50.679Z,69029.19
2023-04-23T06:35:17.947Z,69008.72
2023-04-23T06:37:47.777Z,68983.81
2023-04-23T06:40:15.163Z,68966.38
2023-04-23T06:42:51.736Z,68959.00
2023-04-23T06:45:52.779Z,68941.13
2023-04-23T06:48:22.115Z,68945.31
2023-04-23T06:50:49.542Z,68936.03
2023-04-23T06:53:16.715Z,68933.00
2023-04-23T06:55:44.216Z,68917.97
2023-04-23T06:58:15.545Z,68936.41
2023-04-23T07:00:43.457Z,68931.25
2023-04-23T07:03:11.446Z,68904.06
2023-04-23T07:05:39.742Z,68895.41
2023-04-23T07:08:09.630Z,68881.75
2023-04-23T07:10:39.131Z,68885.16
2023-04-23T07:13:09.475Z,68897.69
2023-04-23T07:15:38.038Z,68912.47
2023-04-23T07:18:09.879Z,68892.56
2023-04-23T07:20:46.594Z,68877.56
2023-04-23T07:23:16.593Z,68864.69
2023-04-23T07:25:43.750Z,68849.88
2023-04-23T07:28:13.884Z,68835.09
2023-04-23T07:30:41.089Z,68836.25
2023-04-23T07:33:14.181Z,68844.19
2023-04-23T07:35:44.291Z,68858.41
2023-04-23T07:38:14.507Z,68834.53
2023-04-23T07:40:41.679Z,68845.34
2023-04-23T07:43:08.820Z,68836.59
2023-04-23T07:45:35.945Z,68824.84
2023-04-23T07:48:06.435Z,68837.00
2023-04-23T07:50:35.061Z,68810.81
2023-04-23T07:53:02.213Z,68805.31
2023-04-23T07:55:29.435Z,68822.38
2023-04-23T07:57:59.522Z,68848.75
2023-04-23T08:00:28.725Z,68855.75
2023-04-23T08:02:59.865Z,68872.81
2023-04-23T08:05:28.506Z,68864.69
2023-04-23T08:08:04.837Z,68880.38
2023-04-23T08:10:32.626Z,68875.47
2023-04-23T08:13:02.507Z,68879.81
2023-04-23T08:15:30.071Z,68903.16
2023-04-23T08:17:57.260Z,68944.53
2023-04-23T08:20:28.032Z,68964.31
2023-04-23T08:22:55.809Z,68989.13
2023-04-23T08:25:22.874Z,69000.34
2023-04-23T08:27:50.131Z,69058.06
2023-04-23T08:30:17.395Z,69005.47
2023-04-23T08:32:47.340Z,69042.47
2023-04-23T08:35:16.305Z,68989.13
2023-04-23T08:37:46.241Z,68996.38
2023-04-23T08:40:13.887Z,68975.84
2023-04-23T08:42:57.376Z,69005.84
2023-04-23T08:45:26.718Z,68992.94
2023-04-23T08:48:01.580Z,69006.59
2023-04-23T08:50:31.157Z,69003.78
2023-04-23T08:53:01.980Z,68983.25
2023-04-23T08:55:33.866Z,68955.94
2023-04-23T08:58:01.629Z,68926.88
2023-04-23T09:00:29.848Z,68901.44
2023-04-23T09:02:58.648Z,68896.16
2023-04-23T09:05:27.350Z,68872.66
2023-04-23T09:07:57.819Z,68863.34
2023-04-23T09:10:33.878Z,68868.28
2023-04-23T09:13:08.874Z,68903.00
2023-04-23T09:15:43.724Z,68926.50
2023-04-23T09:18:12.253Z,68941.13
2023-04-23T09:20:42.532Z,68969.19
2023-04-23T09:23:13.773Z,68988.97
2023-04-23T09:25:41.936Z,69003.38
2023-04-23T09:28:13.727Z,69003.78
2023-04-23T09:30:46.058Z,69040.38
2023-04-23T09:33:13.997Z,69052.56
2023-04-23T09:35:43.376Z,69073.44
2023-04-23T09:38:13.491Z,69046.66
2023-04-23T09:40:40.922Z,68985.72
2023-04-23T09:43:10.630Z,69016.84
2023-04-23T09:46:00.878Z,69053.31
2023-04-23T09:48:43.041Z,69017.81
2023-04-23T09:51:14.298Z,68944.53
2023-04-23T09:53:46.266Z,68916.66
2023-04-23T09:56:16.928Z,68926.50
2023-04-23T09:58:55.079Z,68931.06
2023-04-23T10:01:29.313Z,68949.09
2023-04-23T10:03:56.997Z,68956.69
2023-04-23T10:06:47.071Z,68948.75
2023-04-23T10:09:26.522Z,68973.97
2023-04-23T10:11:54.795Z,69006.03
2023-04-23T10:14:23.068Z,69010.94
2023-04-23T10:17:01.985Z,69027.13
2023-04-23T10:19:34.558Z,69004.16
2023-04-23T10:22:18.678Z,69000.50
2023-04-23T10:24:49.194Z,68998.06
2023-04-23T10:29:54.200Z,69025.00
2023-04-23T10:32:21.794Z,69036.00
2023-04-23T10:34:50.797Z,68972.44
2023-04-23T10:37:25.290Z,68955.94
2023-04-23T10:39:55.709Z,68988.78
2023-04-23T10:42:29.230Z,68998.25
2023-04-23T10:45:04.807Z,68997.50
2023-04-23T10:47:34.696Z,68977.78
2023-04-23T10:50:19.044Z,68950.81
2023-04-23T10:52:51.443Z,68900.72
2023-04-23T10:55:21.584Z,68867.88
2023-04-23T10:58:30.336Z,68888.19
2023-04-23T11:01:05.146Z,68870.56
2023-04-23T11:03:37.310Z,68893.13
2023-04-23T11:06:10.474Z,68899.00
2023-04-23T11:08:40.765Z,68869.59
2023-04-23T11:11:14.184Z,68896.72
2023-04-23T11:13:53.111Z,68918.56
2023-04-23T11:16:23.993Z,68888.19
2023-04-23T11:19:04.954Z,68874.53
2023-04-23T11:22:00.115Z,68857.06
2023-04-23T11:24:30.298Z,68847.97
2023-04-23T11:27:01.306Z,68833.97
2023-04-23T11:29:29.025Z,68840.97
2023-04-23T11:32:04.335Z,68840.38
2023-04-23T11:34:33.855Z,68829.59
2023-04-23T11:37:02.545Z,68816.91
2023-04-23T11:39:32.361Z,68879.47
2023-04-23T11:42:04.207Z,68912.66
2023-04-23T11:44:31.907Z,68977.56
2023-04-23T11:47:05.204Z,69014.56
2023-04-23T11:49:37.850Z,68982.13
2023-04-23T11:52:06.599Z,69001.47
2023-04-23T11:54:39.904Z,69016.44
2023-04-23T11:57:07.238Z,69043.06
2023-04-23T11:59:40.570Z,68990.66
2023-04-23T12:02:07.898Z,68944.38
2023-04-23T12:04:35.260Z,68931.81
2023-04-23T12:07:19.324Z,68935.25
2023-04-23T12:09:59.438Z,68926.31
2023-04-23T12:12:38.978Z,68905.66
2023-04-23T12:15:09.512Z,68887.03
2023-04-23T12:17:38.480Z,68884.56
2023-04-23T12:20:10.028Z,68879.47
2023-04-23T12:22:37.287Z,68898.25
2023-04-23T12:25:11.631Z,68914.38
2023-04-23T12:27:44.711Z,68932.03
2023-04-23T12:30:17.879Z,68972.44
2023-04-23T12:32:45.466Z,69013.22
2023-04-23T12:35:14.077Z,69036.22
2023-04-23T12:37:41.103Z,69041.75
2023-04-23T12:40:12.768Z,69062.44
2023-04-23T12:42:41.575Z,69125.88
2023-04-23T12:45:16.678Z,69211.41
2023-04-23T12:47:48.372Z,69216.91
2023-04-23T12:50:19.068Z,69279.09
2023-04-23T12:52:46.401Z,69311.63
2023-04-23T12:55:17.452Z,69365.84
2023-04-23T12:57:54.384Z,69300.78
2023-04-23T13:00:24.560Z,69341.06
2023-04-23T13:02:56.644Z,69436.81
2023-04-23T13:05:24.598Z,69423.69
2023-04-23T13:07:53.616Z,69443.75
2023-04-23T13:10:21.027Z,69445.38
2023-04-23T13:13:00.729Z,69386.59
2023-04-23T13:15:38.482Z,69405.66
2023-04-23T13:18:09.045Z,69340.38
2023-04-23T13:20:36.613Z,69277.94
2023-04-23T13:23:03.876Z,69247.31
2023-04-23T13:25:31.080Z,69233.22
2023-04-23T13:28:00.789Z,69154.19
2023-04-23T13:30:32.993Z,69190.28
2023-04-23T13:33:00.214Z,69294.31
2023-04-23T13:35:27.859Z,69276.81
2023-04-23T13:37:58.935Z,69302.50
2023-04-23T13:40:26.655Z,69310.06
2023-04-23T13:42:55.721Z,69309.72
2023-04-23T13:45:28.339Z,69218.78
2023-04-23T13:47:58.224Z,69175.88
2023-04-23T13:50:27.640Z,69156.31
2023-04-23T13:52:55.366Z,69156.66
2023-04-23T13:55:22.596Z,69191.81
2023-04-23T13:57:53.415Z,69170.34
2023-04-23T14:00:20.879Z,69123.81
2023-04-23T14:02:51.035Z,69095.66
2023-04-23T14:05:21.141Z,69069.84
2023-04-23T14:07:51.002Z,69068.88
2023-04-23T14:10:23.600Z,69063.97
2023-04-23T14:12:56.771Z,69057.31
2023-04-23T14:15:29.050Z,69042.47
2023-04-23T14:17:56.371Z,69045.91
2023-04-23T14:20:23.760Z,69052.94
2023-04-23T14:22:56.752Z,69095.88
2023-04-23T14:25:41.512Z,69090.75
2023-04-23T14:28:33.444Z,69093.59
2023-04-23T14:31:01.738Z,69100.44
2023-04-23T14:33:33.291Z,69128.16
2023-04-23T14:36:02.336Z,69088.66
2023-04-23T14:38:29.469Z,69057.88
2023-04-23T14:41:03.161Z,69038.50
2023-04-23T14:43:34.112Z,69037.75
2023-04-23T14:46:01.831Z,69039.63
2023-04-23T14:48:29.299Z,69044.53
2023-04-23T14:50:59.063Z,69051.44
2023-04-23T14:53:28.335Z,69073.44
2023-04-23T14:55:55.749Z,69129.50
2023-04-23T14:58:23.525Z,69129.09
2023-04-23T15:00:51.213Z,69131.22
2023-04-23T15:03:18.725Z,69105.19
2023-04-23T15:05:46.297Z,69095.50
2023-04-23T15:08:13.481Z,69107.84
2023-04-23T15:10:40.965Z,69117.88
2023-04-23T15:13:25.628Z,69081.97
2023-04-23T15:16:02.464Z,69080.09
2023-04-23T15:18:29.865Z,69099.09
2023-04-23T15:20:57.119Z,69125.69
2023-04-23T15:23:24.693Z,69153.03
2023-04-23T15:25:52.882Z,69131.94
2023-04-23T15:28:20.145Z,69135.38
2023-04-23T15:30:50.361Z,69144.66
2023-04-23T15:33:21.621Z,69129.66
2023-04-23T15:35:51.037Z,69173.19
2023-04-23T15:38:19.875Z,69253.22
2023-04-23T15:40:58.383Z,69242.16
2023-04-23T15:43:26.923Z,69256.09
2023-04-23T15:45:58.663Z,69320.34
2023-04-23T15:48:29.021Z,69348.31
2023-04-23T15:50:59.393Z,69303.06
2023-04-23T15:53:28.072Z,69305.91
2023-04-23T15:55:55.388Z,69316.59
2023-04-23T15:58:22.565Z,69325.31
2023-04-23T16:00:49.891Z,69311.63
2023-04-23T16:03:17.185Z,69291.25
2023-04-23T16:05:44.962Z,69284.97
2023-04-23T16:08:12.103Z,69237.81
2023-04-23T16:10:42.996Z,69206.47
2023-04-23T16:13:10.295Z,69149.44
2023-04-23T16:15:39.859Z,69117.88
2023-04-23T16:18:09.927Z,69092.63
2023-04-23T16:20:37.257Z,69101.00
2023-04-23T16:23:04.639Z,69104.03
2023-04-23T16:25:31.818Z,69078.78
2023-04-23T16:27:59.059Z,69068.91
2023-04-23T16:30:26.310Z,69051.81
2023-04-23T16:32:57.058Z,69023.69
2023-04-23T16:35:24.285Z,69014.97
2023-04-23T16:37:58.651Z,68993.91
2023-04-23T16:40:33.681Z,68976.41
2023-04-23T16:43:01.377Z,68978.16
2023-04-23T16:45:30.768Z,68977.75
2023-04-23T16:47:59.796Z,68977.97
2023-04-23T16:50:27.641Z,69004.16
2023-04-23T16:52:56.183Z,68997.69
2023-04-23T16:55:30.336Z,68996.94
2023-04-23T16:57:58.746Z,69003.41
2023-04-23T17:00:30.391Z,69009.63
2023-04-23T17:02:57.851Z,69026.53
2023-04-23T17:05:25.783Z,69022.53
2023-04-23T17:07:54.416Z,68996.19
2023-04-23T17:10:27.190Z,68992.19
2023-04-23T17:12:55.398Z,68959.53
2023-04-23T17:15:23.038Z,68961.84
2023-04-23T17:17:50.513Z,68956.50
2023-04-23T17:20:22.262Z,68951.38
2023-04-23T17:22:52.909Z,68945.91
2023-04-23T17:25:26.691Z,68921.75
2023-04-23T17:27:54.627Z,68918.16
2023-04-23T17:30:21.995Z,68903.56
2023-04-23T17:32:54.341Z,68895.03
2023-04-23T17:35:29.546Z,68892.56
2023-04-23T17:38:02.757Z,68879.81
2023-04-23T17:40:33.363Z,68868.28
2023-04-23T17:43:05.159Z,68852.91
2023-04-23T17:45:32.333Z,68845.72
2023-04-23T17:48:05.447Z,68833.56
2023-04-23T17:50:32.681Z,68806.28
2023-04-23T17:52:59.824Z,68794.50
2023-04-23T17:55:27.272Z,68790.50
2023-04-23T17:57:57.509Z,68782.38
2023-04-23T18:00:25.475Z,68781.63
2023-04-23T18:03:04.244Z,68765.13
2023-04-23T18:05:34.382Z,68746.38
2023-04-23T18:08:06.870Z,68757.16
2023-04-23T18:10:34.205Z,68742.97
2023-04-23T18:13:03.399Z,68730.81
2023-04-23T18:15:34.073Z,68730.06
2023-04-23T18:18:03.848Z,68729.50
2023-04-23T18:20:35.102Z,68728.16
2023-04-23T18:23:02.442Z,68724.78
2023-04-23T18:25:30.336Z,68722.50
2023-04-23T18:27:57.474Z,68724.78
2023-04-23T18:30:25.726Z,68718.50
2023-04-23T18:33:07.504Z,68713.97
2023-04-23T18:35:34.870Z,68722.31
2023-04-23T18:38:09.789Z,68706.03
2023-04-23T18:40:36.955Z,68704.31
2023-04-23T18:43:04.071Z,68706.78
2023-04-23T18:45:31.743Z,68702.03
2023-04-23T18:48:20.808Z,68707.34
2023-04-23T18:50:50.978Z,68710.75
2023-04-23T18:53:19.795Z,68718.13
2023-04-23T18:55:48.092Z,68713.41
2023-04-23T18:58:15.493Z,68703.16
2023-04-23T19:00:42.620Z,68700.91
2023-04-23T19:03:23.659Z,68698.06
2023-04-23T19:05:52.986Z,68696.34
2023-04-23T19:08:22.048Z,68698.63
2023-04-23T19:10:49.127Z,68687.25
2023-04-23T19:13:16.870Z,68673.81
2023-04-23T19:15:44.024Z,68673.81
2023-04-23T19:18:11.275Z,68666.03
2023-04-23T19:20:38.786Z,68668.69
2023-04-23T19:23:09.719Z,68652.78
2023-04-23T19:25:37.173Z,68659.22
2023-04-23T19:28:04.326Z,68641.41
2023-04-23T19:30:32.467Z,68637.22
2023-04-23T19:33:00.198Z,68627.22
2023-04-23T19:35:30.536Z,68615.66
2023-04-23T19:37:57.599Z,68615.25
2023-04-23T19:40:24.747Z,68604.28
2023-04-23T19:42:51.828Z,68600.91
2023-04-23T19:45:19.086Z,68576.84
2023-04-23T19:47:46.616Z,68572.13
2023-04-23T19:50:20.075Z,68580.63
2023-04-23T19:52:47.240Z,68590.66
2023-04-23T19:55:14.577Z,68575.91
2023-04-23T19:57:43.033Z,68562.06
2023-04-23T20:00:16.733Z,68557.72
2023-04-23T20:02:46.807Z,68545.25
2023-04-23T20:05:16.165Z,68533.13
2023-04-23T20:07:47.507Z,68516.47
2023-04-23T20:10:16.290Z,68508.53
2023-04-23T20:12:47.405Z,68516.13
2023-04-23T20:15:24.411Z,68521.59
2023-04-23T20:17:52.128Z,68512.13
2023-04-23T20:20:21.591Z,68507.03
2023-04-23T20:22:48.870Z,68514.03
2023-04-23T20:25:22.975Z,68509.13
2023-04-23T20:27:51.548Z,68509.13
2023-04-23T20:30:18.955Z,68507.78
2023-04-23T20:32:52.678Z,68497.91
2023-04-23T20:35:20.548Z,68500.00
2023-04-23T20:37:54.547Z,68493.56
2023-04-23T20:40:21.849Z,68490.75
2023-04-23T20:42:51.641Z,68475.22
2023-04-23T20:45:19.256Z,68477.69
2023-04-23T20:47:47.399Z,68479.38
2023-04-23T20:50:17.555Z,68483.34
2023-04-23T20:52:49.575Z,68490.19
2023-04-23T20:55:16.775Z,68496.97
2023-04-23T20:57:43.943Z,68493.78
2023-04-23T21:00:12.104Z,68492.06
2023-04-23T21:02:39.559Z,68494.16
2023-04-23T21:05:07.833Z,68489.22
2023-04-23T21:07:36.672Z,68491.31
2023-04-23T21:10:04.977Z,68489.22
2023-04-23T21:12:32.818Z,68491.88
2023-04-23T21:14:59.974Z,68488.84
2023-04-23T21:17:26.998Z,68494.16
2023-04-23T21:19:54.156Z,68495.28
2023-04-23T21:22:21.356Z,68497.75
2023-04-23T21:24:48.501Z,68496.22
2023-04-23T21:27:21.484Z,68482.03
2023-04-23T21:29:49.202Z,68474.09
2023-04-23T21:32:17.272Z,68469.19
2023-04-23T21:34:44.817Z,68464.06
2023-04-23T21:37:12.403Z,68467.47
2023-04-23T21:39:39.726Z,68464.63
2023-04-23T21:42:07.385Z,68466.34
2023-04-23T21:44:36.600Z,68467.28
2023-04-23T21:47:04.141Z,68458.00
2023-04-23T21:49:32.832Z,68450.06
2023-04-23T21:52:01.565Z,68452.53
2023-04-23T21:54:28.916Z,68445.34
2023-04-23T21:56:59.203Z,68443.84
2023-04-23T21:59:26.358Z,68444.41
2023-04-23T22:01:53.480Z,68445.91
2023-04-23T22:04:22.458Z,68437.78
2023-04-23T22:06:51.248Z,68441.38
2023-04-23T22:09:18.939Z,68444.41
2023-04-23T22:12:01.197Z,68443.63
2023-04-23T22:14:29.000Z,68441.94
2023-04-23T22:16:58.659Z,68436.06
2023-04-23T22:19:26.102Z,68436.06
2023-04-23T22:21:56.926Z,68442.13
2023-04-23T22:24:24.220Z,68444.78
2023-04-23T22:26:51.898Z,68437.22
2023-04-23T22:29:19.097Z,68443.06
2023-04-23T22:31:46.392Z,68447.44
2023-04-23T22:34:13.587Z,68439.47
2023-04-23T22:36:43.253Z,68445.53
2023-04-23T22:39:10.818Z,68448.19
2023-04-23T22:41:40.123Z,68445.53
2023-04-23T22:44:07.461Z,68453.28
2023-04-23T22:46:34.852Z,68452.34
2023-04-23T22:49:02.827Z,68458.94
2023-04-23T22:51:33.611Z,68457.84
2023-04-23T22:54:00.780Z,68458.22
2023-04-23T22:56:27.959Z,68453.09
2023-04-23T22:58:55.031Z,68452.91
2023-04-23T23:01:22.249Z,68455.56
2023-04-23T23:03:49.491Z,68452.34
2023-04-23T23:06:18.063Z,68451.59
2023-04-23T23:08:45.990Z,68449.91
2023-04-23T23:11:12.970Z,68452.16
2023-04-23T23:13:40.693Z,68437.22
2023-04-23T23:16:08.077Z,68439.88
2023-04-23T23:18:35.314Z,68436.47
2023-04-23T23:21:02.746Z,68436.47
2023-04-23T23:23:30.552Z,68434.75
2023-04-23T23:25:59.859Z,68436.47
2023-04-23T23:28:27.503Z,68430.22
2023-04-23T23:30:55.736Z,68430.03
2023-04-23T23:33:23.698Z,68423.41
2023-04-23T23:35:50.998Z,68425.88
2023-04-23T23:38:17.980Z,68417.38
2023-04-23T23:40:45.053Z,68416.59
2023-04-23T23:43:13.337Z,68416.59
2023-04-23T23:45:40.487Z,68417.00
2023-04-23T23:48:07.810Z,68413.03
2023-04-23T23:50:35.226Z,68409.78
2023-04-23T23:53:02.314Z,68410.19
2023-04-23T23:55:29.422Z,68411.88
2023-04-23T23:57:56.524Z,68411.88
